PILOTS ONLINE: 619    ATC ONLINE: 133

KCDC

Cedar City Regional Airport

Location

IATA CDC
City Cedar City
Country  United States
Latitude 37° 42' 3" N
Longitude 113° 5' 56" W
Elevation 5622 ft
Type Medium Airport

Map

Weather

METAR
2014/09/02 17:53
KCDC 021753Z AUTO 22013G20KT 10SM CLR 29/02 A3011 RMK AO2 SLP109 T02890022 10289 20111 58007
TAF
2014/09/02 18:30
TAF KCDC 021725Z 0218/0318 22012G18KT P6SM SKC 
     FM030200 20008KT P6SM SKC 
     FM030400 16005KT P6SM SKC

Runways

02/20 8653 ft / 150 ft
08/26 4822 ft / 60 ft

Outbound flights

Callsign Flying to Pilot ATD/STD ETA Aircraft

Inbound flights

Callsign Flying from Pilot ATD ETA Aircraft